createdAt,value
2023-04-07T00:02:02.785Z,77.16
2023-04-07T00:04:30.654Z,77.71
2023-04-07T00:06:59.676Z,77.97
2023-04-07T00:09:27.384Z,78.36
2023-04-07T00:11:55.046Z,78.13
2023-04-07T00:14:22.700Z,78.07
2023-04-07T00:16:50.349Z,77.61
2023-04-07T00:19:18.038Z,77.95
2023-04-07T00:21:45.820Z,78.13
2023-04-07T00:24:18.539Z,78.64
2023-04-07T00:26:55.001Z,79.33
2023-04-07T00:29:22.737Z,80.21
2023-04-07T00:31:50.370Z,80.78
2023-04-07T00:34:17.964Z,80.54
2023-04-07T00:36:51.849Z,80.20
2023-04-07T00:39:21.677Z,79.67
2023-04-07T00:41:49.405Z,80.37
2023-04-07T00:44:17.079Z,80.36
2023-04-07T00:46:45.048Z,80.66
2023-04-07T00:49:13.235Z,80.76
2023-04-07T00:51:40.921Z,80.60
2023-04-07T00:54:08.549Z,80.93
2023-04-07T00:56:37.536Z,81.10
2023-04-07T00:59:06.140Z,80.79
2023-04-07T01:01:42.131Z,80.94
2023-04-07T01:04:12.768Z,80.79
2023-04-07T01:06:49.317Z,80.91
2023-04-07T01:09:20.476Z,80.17
2023-04-07T01:12:02.108Z,80.21
2023-04-07T01:14:38.492Z,80.29
2023-04-07T01:17:08.743Z,80.40
2023-04-07T01:19:40.694Z,80.44
2023-04-07T01:22:13.449Z,80.43
2023-04-07T01:24:59.255Z,80.29
2023-04-07T01:27:37.931Z,80.22
2023-04-07T01:30:11.866Z,80.11
2023-04-07T01:32:41.742Z,79.95
2023-04-07T01:35:13.388Z,80.03
2023-04-07T01:37:42.111Z,79.93
2023-04-07T01:40:11.079Z,80.25
2023-04-07T01:42:40.828Z,80.51
2023-04-07T01:45:11.741Z,80.68
2023-04-07T01:47:40.394Z,80.29
2023-04-07T01:50:09.451Z,80.52
2023-04-07T01:52:37.806Z,80.20
2023-04-07T01:55:06.270Z,80.25
2023-04-07T01:57:34.179Z,79.73
2023-04-07T02:00:01.855Z,80.00
2023-04-07T02:02:31.626Z,79.76
2023-04-07T02:05:05.539Z,79.38
2023-04-07T02:07:40.623Z,78.79
2023-04-07T02:10:12.060Z,79.28
2023-04-07T02:12:41.995Z,79.50
2023-04-07T02:15:12.616Z,79.72
2023-04-07T02:17:45.955Z,80.36
2023-04-07T02:20:14.438Z,80.85
2023-04-07T02:22:44.747Z,81.05
2023-04-07T02:25:25.994Z,80.88
2023-04-07T02:27:54.343Z,80.60
2023-04-07T02:30:22.811Z,80.71
2023-04-07T02:32:52.020Z,80.48
2023-04-07T02:35:19.736Z,80.82
2023-04-07T02:37:48.210Z,80.42
2023-04-07T02:40:15.921Z,80.45
2023-04-07T02:42:43.736Z,80.11
2023-04-07T02:45:12.415Z,79.57
2023-04-07T02:47:40.924Z,79.92
2023-04-07T02:50:11.003Z,79.58
2023-04-07T02:52:38.697Z,79.20
2023-04-07T02:55:07.336Z,78.50
2023-04-07T02:57:35.032Z,77.34
2023-04-07T03:00:02.945Z,76.68
2023-04-07T03:02:30.932Z,76.64
2023-04-07T03:04:59.048Z,77.00
2023-04-07T03:07:28.105Z,77.33
2023-04-07T03:09:55.722Z,77.68
2023-04-07T03:12:23.323Z,78.32
2023-04-07T03:14:50.952Z,78.88
2023-04-07T03:17:18.661Z,78.68
2023-04-07T03:19:47.037Z,78.94
2023-04-07T03:22:14.788Z,78.79
2023-04-07T03:24:43.778Z,78.55
2023-04-07T03:27:11.508Z,78.34
2023-04-07T03:29:39.155Z,78.42
2023-04-07T03:32:07.097Z,78.94
2023-04-07T03:34:34.686Z,79.65
2023-04-07T03:37:02.361Z,79.32
2023-04-07T03:39:30.189Z,78.47
2023-04-07T03:41:59.304Z,78.09
2023-04-07T03:44:26.916Z,77.69
2023-04-07T03:46:54.613Z,77.49
2023-04-07T03:49:22.264Z,77.11
2023-04-07T03:51:49.865Z,76.85
2023-04-07T03:54:17.537Z,77.01
2023-04-07T03:56:45.754Z,76.47
2023-04-07T03:59:14.805Z,76.78
2023-04-07T04:01:42.615Z,77.00
2023-04-07T04:04:10.420Z,77.78
2023-04-07T04:06:38.268Z,77.38
2023-04-07T04:09:06.029Z,77.75
2023-04-07T04:11:33.653Z,77.58
2023-04-07T04:14:01.264Z,77.98
2023-04-07T04:16:31.483Z,77.99
2023-04-07T04:18:59.099Z,77.73
2023-04-07T04:21:27.316Z,77.61
2023-04-07T04:23:55.172Z,77.21
2023-04-07T04:26:25.982Z,77.22
2023-04-07T04:28:53.725Z,77.64
2023-04-07T04:31:21.420Z,77.28
2023-04-07T04:33:50.643Z,76.93
2023-04-07T04:36:18.497Z,77.00
2023-04-07T04:38:46.260Z,77.38
2023-04-07T04:41:13.844Z,77.69
2023-04-07T04:43:42.488Z,78.33
2023-04-07T04:46:10.480Z,78.38
2023-04-07T04:48:38.191Z,78.21
2023-04-07T04:51:08.522Z,77.54
2023-04-07T04:53:36.108Z,77.74
2023-04-07T04:56:03.771Z,77.83
2023-04-07T04:58:31.420Z,77.39
2023-04-07T05:01:00.475Z,77.44
2023-04-07T05:03:29.364Z,77.63
2023-04-07T05:05:57.132Z,77.38
2023-04-07T05:08:26.307Z,76.91
2023-04-07T05:10:55.082Z,76.61
2023-04-07T05:13:22.704Z,76.98
2023-04-07T05:15:50.441Z,76.96
2023-04-07T05:18:18.210Z,76.55
2023-04-07T05:20:45.828Z,76.61
2023-04-07T05:23:13.464Z,76.12
2023-04-07T05:25:42.461Z,76.05
2023-04-07T05:28:10.164Z,75.98
2023-04-07T05:30:37.880Z,76.55
2023-04-07T05:33:05.716Z,77.11
2023-04-07T05:35:33.430Z,76.65
2023-04-07T05:38:01.159Z,76.54
2023-04-07T05:40:30.194Z,76.39
2023-04-07T05:42:59.181Z,75.95
2023-04-07T05:45:27.194Z,75.92
2023-04-07T05:47:54.902Z,76.10
2023-04-07T05:50:22.560Z,75.20
2023-04-07T05:52:50.371Z,75.42
2023-04-07T05:55:18.106Z,75.72
2023-04-07T05:57:46.155Z,75.42
2023-04-07T06:00:16.518Z,74.60
2023-04-07T06:02:44.269Z,74.58
2023-04-07T06:05:12.168Z,74.11
2023-04-07T06:07:39.852Z,74.78
2023-04-07T06:10:09.217Z,74.89
2023-04-07T06:12:36.874Z,75.69
2023-04-07T06:15:04.798Z,76.09
2023-04-07T06:17:33.892Z,76.32
2023-04-07T06:20:01.559Z,76.50
2023-04-07T06:22:29.232Z,76.34
2023-04-07T06:24:56.868Z,76.23
2023-04-07T06:27:24.614Z,76.27
2023-04-07T06:29:52.302Z,75.30
2023-04-07T06:32:20.339Z,75.21
2023-04-07T06:34:49.419Z,75.16
2023-04-07T06:37:17.218Z,76.14
2023-04-07T06:39:45.392Z,75.87
2023-04-07T06:42:13.018Z,75.94
2023-04-07T06:44:40.653Z,74.73
2023-04-07T06:47:09.025Z,74.20
2023-04-07T06:49:37.283Z,74.86
2023-04-07T06:52:06.690Z,75.25
2023-04-07T06:54:34.342Z,75.72
2023-04-07T06:57:02.706Z,75.30
2023-04-07T06:59:30.411Z,74.74
2023-04-07T07:01:58.148Z,73.95
2023-04-07T07:04:26.426Z,73.65
2023-04-07T07:06:55.977Z,72.36
2023-04-07T07:09:24.981Z,72.31
2023-04-07T07:11:52.725Z,72.63
2023-04-07T07:14:20.438Z,72.16
2023-04-07T07:16:48.055Z,71.73
2023-04-07T07:19:16.260Z,71.95
2023-04-07T07:21:43.954Z,72.08
2023-04-07T07:24:11.686Z,71.75
2023-04-07T07:26:43.478Z,71.99
2023-04-07T07:29:11.833Z,72.13
2023-04-07T07:31:39.509Z,71.50
2023-04-07T07:34:07.472Z,71.05
2023-04-07T07:36:35.117Z,69.16
2023-04-07T07:39:02.778Z,68.12
2023-04-07T07:41:30.823Z,67.18
2023-04-07T07:43:59.832Z,67.53
2023-04-07T07:46:27.521Z,66.58
2023-04-07T07:48:55.242Z,66.18
2023-04-07T07:51:23.474Z,66.14
2023-04-07T07:53:51.244Z,65.76
2023-04-07T07:56:18.934Z,65.24
2023-04-07T07:58:46.985Z,65.31
2023-04-07T08:01:16.001Z,64.40
2023-04-07T08:03:43.745Z,64.08
2023-04-07T08:06:11.930Z,63.25
2023-04-07T08:08:39.862Z,63.06
2023-04-07T08:11:07.518Z,63.21
2023-04-07T08:13:35.155Z,63.49
2023-04-07T08:16:03.225Z,64.04
2023-04-07T08:18:32.267Z,64.31
2023-04-07T08:20:59.911Z,64.61
2023-04-07T08:23:27.570Z,63.92
2023-04-07T08:25:55.418Z,64.70
2023-04-07T08:28:23.139Z,65.02
2023-04-07T08:30:50.772Z,64.80
2023-04-07T08:33:18.486Z,65.09
2023-04-07T08:35:47.601Z,65.90
2023-04-07T08:38:15.511Z,66.30
2023-04-07T08:40:43.738Z,65.63
2023-04-07T08:43:11.533Z,66.66
2023-04-07T08:45:42.148Z,67.74
2023-04-07T08:48:18.817Z,66.70
2023-04-07T08:50:52.601Z,66.04
2023-04-07T08:53:25.680Z,64.85
2023-04-07T08:55:53.836Z,65.66
2023-04-07T08:58:22.383Z,64.26
2023-04-07T09:00:50.438Z,66.37
2023-04-07T09:03:19.449Z,67.34
2023-04-07T09:05:48.636Z,66.86
2023-04-07T09:08:16.348Z,67.48
2023-04-07T09:10:45.803Z,66.78
2023-04-07T09:13:13.474Z,68.25
2023-04-07T09:15:41.751Z,68.76
2023-04-07T09:18:09.573Z,69.22
2023-04-07T09:20:58.497Z,69.85
2023-04-07T09:23:31.062Z,70.11
2023-04-07T09:26:01.178Z,71.25
2023-04-07T09:28:41.832Z,70.54
2023-04-07T09:31:09.506Z,69.90
2023-04-07T09:33:37.341Z,69.69
2023-04-07T09:36:07.381Z,70.23
2023-04-07T09:38:35.986Z,70.53
2023-04-07T09:41:08.728Z,71.92
2023-04-07T09:43:41.160Z,72.36
2023-04-07T09:46:10.850Z,72.18
2023-04-07T09:48:38.994Z,71.68
2023-04-07T09:51:09.840Z,71.59
2023-04-07T09:53:48.844Z,71.58
2023-04-07T09:56:18.464Z,71.70
2023-04-07T09:58:47.804Z,70.77
2023-04-07T10:01:17.597Z,69.23
2023-04-07T10:03:47.857Z,69.97
2023-04-07T10:06:17.956Z,69.68
2023-04-07T10:08:45.999Z,68.34
2023-04-07T10:11:13.884Z,67.10
2023-04-07T10:13:42.151Z,65.67
2023-04-07T10:16:09.815Z,66.79
2023-04-07T10:18:38.164Z,66.82
2023-04-07T10:21:08.016Z,65.70
2023-04-07T10:23:57.359Z,66.31
2023-04-07T10:26:29.067Z,67.84
2023-04-07T10:29:00.691Z,68.15
2023-04-07T10:31:28.689Z,68.81
2023-04-07T10:33:57.524Z,69.89
2023-04-07T10:36:25.284Z,69.84
2023-04-07T10:39:23.166Z,68.94
2023-04-07T10:41:51.879Z,68.29
2023-04-07T10:44:49.827Z,67.48
2023-04-07T10:47:17.639Z,66.05
2023-04-07T10:50:22.239Z,58.79
2023-04-07T10:52:52.441Z,57.27
2023-04-07T10:55:35.987Z,55.88
2023-04-07T10:58:22.599Z,55.20
2023-04-07T11:01:30.007Z,56.06
2023-04-07T11:04:01.110Z,55.79
2023-04-07T11:06:29.092Z,56.26
2023-04-07T11:08:56.877Z,58.09
2023-04-07T11:11:40.555Z,59.17
2023-04-07T11:14:08.286Z,60.02
2023-04-07T11:16:39.047Z,61.72
2023-04-07T11:19:06.837Z,61.03
2023-04-07T11:21:35.015Z,62.29
2023-04-07T11:24:02.702Z,62.98
2023-04-07T11:26:30.989Z,64.20
2023-04-07T11:29:00.127Z,66.08
2023-04-07T11:31:31.309Z,65.86
2023-04-07T11:34:01.724Z,66.50
2023-04-07T11:36:32.395Z,66.72
2023-04-07T11:39:00.731Z,69.10
2023-04-07T11:41:30.602Z,69.36
2023-04-07T11:44:10.682Z,69.14
2023-04-07T11:46:53.132Z,68.67
2023-04-07T11:49:20.790Z,69.31
2023-04-07T11:51:48.389Z,69.49
2023-04-07T11:54:16.395Z,69.14
2023-04-07T11:56:46.586Z,69.06
2023-04-07T11:59:23.847Z,68.75
2023-04-07T12:01:55.340Z,69.14
2023-04-07T12:04:24.961Z,69.45
2023-04-07T12:06:53.061Z,68.43
2023-04-07T12:09:29.557Z,68.82
2023-04-07T12:11:58.459Z,68.62
2023-04-07T12:14:28.569Z,67.90
2023-04-07T12:16:57.973Z,67.40
2023-04-07T12:19:27.805Z,66.88
2023-04-07T12:21:55.538Z,65.78
2023-04-07T12:24:23.770Z,62.41
2023-04-07T12:26:51.510Z,62.08
2023-04-07T12:29:20.267Z,61.24
2023-04-07T12:31:51.035Z,61.46
2023-04-07T12:34:19.305Z,62.41
2023-04-07T12:36:46.980Z,62.99
2023-04-07T12:39:14.772Z,63.63
2023-04-07T12:41:42.525Z,62.68
2023-04-07T12:44:10.811Z,62.93
2023-04-07T12:46:38.521Z,63.90
2023-04-07T12:49:07.535Z,63.34
2023-04-07T12:51:35.392Z,63.13
2023-04-07T12:54:03.541Z,64.08
2023-04-07T12:56:31.535Z,63.95
2023-04-07T12:58:59.366Z,62.65
2023-04-07T13:01:27.122Z,63.89
2023-04-07T13:03:54.926Z,63.87
2023-04-07T13:06:24.475Z,62.57
2023-04-07T13:08:52.102Z,63.09
2023-04-07T13:11:19.952Z,62.89
2023-04-07T13:13:47.745Z,63.31
2023-04-07T13:16:15.716Z,62.26
2023-04-07T13:18:43.591Z,64.07
2023-04-07T13:21:42.844Z,64.02
2023-04-07T13:24:00.698Z,64.18
2023-04-07T13:26:28.760Z,63.74
2023-04-07T13:28:56.364Z,63.90
2023-04-07T13:31:24.168Z,63.63
2023-04-07T13:33:52.048Z,62.48
2023-04-07T13:36:21.227Z,63.00
2023-04-07T13:38:50.712Z,62.89
2023-04-07T13:41:19.768Z,62.86
2023-04-07T13:43:47.715Z,62.23
2023-04-07T13:46:28.002Z,61.66
2023-04-07T13:48:56.492Z,60.45
2023-04-07T13:51:24.325Z,60.71
2023-04-07T13:53:52.055Z,60.95
2023-04-07T13:56:22.223Z,61.14
2023-04-07T13:58:50.023Z,61.63
2023-04-07T14:01:18.032Z,61.54
2023-04-07T14:03:46.316Z,62.79
2023-04-07T14:06:14.134Z,63.00
2023-04-07T14:08:41.920Z,63.94
2023-04-07T14:11:09.575Z,64.05
2023-04-07T14:13:38.573Z,64.34
2023-04-07T14:16:08.049Z,64.85
2023-04-07T14:18:35.854Z,64.65
2023-04-07T14:21:03.565Z,64.69
2023-04-07T14:23:37.330Z,65.12
2023-04-07T14:26:05.523Z,64.88
2023-04-07T14:28:33.548Z,64.57
2023-04-07T14:31:02.649Z,64.17
2023-04-07T14:33:30.421Z,63.53
2023-04-07T14:35:58.371Z,64.57
2023-04-07T14:38:27.028Z,63.95
2023-04-07T14:40:54.821Z,63.75
2023-04-07T14:43:22.450Z,64.18
2023-04-07T14:45:50.085Z,63.62
2023-04-07T14:48:19.055Z,63.50
2023-04-07T14:50:47.659Z,62.88
2023-04-07T14:53:15.951Z,62.14
2023-04-07T14:55:43.680Z,62.23
2023-04-07T14:58:11.388Z,62.25
2023-04-07T15:00:39.101Z,61.94
2023-04-07T15:03:06.920Z,61.24
2023-04-07T15:05:36.072Z,61.29
2023-04-07T15:08:03.719Z,60.96
2023-04-07T15:10:35.389Z,61.36
2023-04-07T15:13:03.601Z,60.99
2023-04-07T15:15:31.282Z,60.54
2023-04-07T15:17:59.918Z,60.17
2023-04-07T15:20:27.883Z,59.61
2023-04-07T15:22:57.519Z,59.49
2023-04-07T15:25:25.326Z,59.74
2023-04-07T15:27:53.210Z,59.47
2023-04-07T15:30:21.002Z,60.57
2023-04-07T15:32:58.682Z,59.90
2023-04-07T15:35:26.532Z,59.83
2023-04-07T15:37:54.215Z,59.28
2023-04-07T15:40:23.581Z,58.74
2023-04-07T15:42:51.277Z,59.14
2023-04-07T15:45:18.908Z,59.26
2023-04-07T15:47:46.620Z,60.62
2023-04-07T15:50:14.310Z,60.31
2023-04-07T15:52:41.970Z,59.84
2023-04-07T15:55:10.534Z,59.93
2023-04-07T15:57:39.480Z,60.01
2023-04-07T16:00:08.548Z,60.42
2023-04-07T16:02:36.307Z,60.03
2023-04-07T16:05:04.208Z,59.67
2023-04-07T16:07:31.924Z,60.65
2023-04-07T16:09:59.592Z,60.76
2023-04-07T16:12:27.219Z,60.59
2023-04-07T16:14:56.235Z,60.93
2023-04-07T16:17:23.938Z,61.31
2023-04-07T16:19:51.643Z,61.64
2023-04-07T16:22:19.349Z,62.44
2023-04-07T16:24:47.142Z,63.24
2023-04-07T16:27:14.810Z,63.29
2023-04-07T16:29:42.431Z,62.25
2023-04-07T16:32:11.721Z,62.21
2023-04-07T16:34:39.358Z,61.58
2023-04-07T16:37:06.975Z,61.61
2023-04-07T16:39:34.652Z,61.12
2023-04-07T16:42:02.385Z,61.63
2023-04-07T16:44:30.032Z,61.63
2023-04-07T16:46:57.808Z,61.89
2023-04-07T16:49:26.968Z,61.30
2023-04-07T16:51:54.594Z,62.15
2023-04-07T16:54:22.264Z,62.28
2023-04-07T16:56:50.150Z,62.49
2023-04-07T16:59:17.874Z,62.41
2023-04-07T17:01:45.875Z,62.57
2023-04-07T17:04:13.954Z,63.09
2023-04-07T17:06:42.972Z,63.59
2023-04-07T17:09:12.144Z,64.12
2023-04-07T17:11:41.887Z,64.60
2023-04-07T17:14:09.615Z,64.46
2023-04-07T17:16:37.300Z,65.04
2023-04-07T17:19:04.904Z,64.80
2023-04-07T17:21:32.975Z,64.23
2023-04-07T17:24:02.076Z,63.62
2023-04-07T17:26:29.713Z,63.17
2023-04-07T17:28:57.366Z,62.44
2023-04-07T17:31:25.269Z,62.54
2023-04-07T17:33:53.306Z,62.25
2023-04-07T17:36:20.935Z,62.40
2023-04-07T17:38:48.686Z,62.22
2023-04-07T17:41:19.296Z,62.17
2023-04-07T17:43:47.139Z,62.64
2023-04-07T17:46:14.977Z,62.57
2023-04-07T17:48:44.768Z,62.96
2023-04-07T17:51:14.271Z,63.21
2023-04-07T17:53:42.030Z,63.25
2023-04-07T17:56:09.819Z,63.77
2023-04-07T17:58:38.823Z,64.17
2023-04-07T18:01:09.323Z,64.39
2023-04-07T18:03:37.269Z,64.61
2023-04-07T18:06:05.400Z,64.66
2023-04-07T18:08:33.116Z,65.12
2023-04-07T18:11:01.029Z,65.70
2023-04-07T18:13:28.687Z,65.90
2023-04-07T18:15:58.018Z,66.06
2023-04-07T18:18:25.791Z,66.33
2023-04-07T18:20:53.399Z,66.84
2023-04-07T18:23:21.079Z,67.26
2023-04-07T18:25:49.350Z,67.57
2023-04-07T18:28:17.277Z,67.65
2023-04-07T18:30:45.215Z,67.73
2023-04-07T18:33:14.359Z,67.69
2023-04-07T18:35:42.539Z,67.56
2023-04-07T18:38:10.278Z,67.83
2023-04-07T18:40:37.926Z,68.17
2023-04-07T18:43:05.835Z,68.39
2023-04-07T18:45:36.773Z,68.54
2023-04-07T18:48:05.096Z,68.94
2023-04-07T18:50:34.192Z,68.92
2023-04-07T18:53:01.963Z,69.27
2023-04-07T18:55:29.634Z,68.98
2023-04-07T18:57:57.377Z,69.02
2023-04-07T19:00:25.022Z,69.24
2023-04-07T19:02:55.466Z,69.32
2023-04-07T19:05:25.688Z,69.57
2023-04-07T19:07:55.078Z,69.44
2023-04-07T19:10:22.805Z,69.23
2023-04-07T19:12:50.561Z,69.23
2023-04-07T19:15:18.305Z,69.30
2023-04-07T19:17:46.051Z,69.30
2023-04-07T19:20:13.677Z,69.09
2023-04-07T19:22:41.900Z,68.74
2023-04-07T19:25:11.301Z,68.82
2023-04-07T19:27:39.518Z,68.67
2023-04-07T19:30:08.675Z,68.53
2023-04-07T19:32:36.497Z,68.49
2023-04-07T19:35:04.245Z,68.58
2023-04-07T19:37:31.970Z,68.34
2023-04-07T19:40:03.217Z,68.25
2023-04-07T19:42:32.821Z,67.92
2023-04-07T19:45:02.311Z,67.76
2023-04-07T19:47:30.421Z,67.83
2023-04-07T19:49:58.208Z,67.83
2023-04-07T19:52:26.025Z,67.84
2023-04-07T19:54:53.688Z,67.74
2023-04-07T19:57:21.736Z,67.71
2023-04-07T19:59:50.786Z,67.23
2023-04-07T20:02:18.701Z,67.41
2023-04-07T20:04:46.436Z,67.83
2023-04-07T20:07:14.076Z,67.74
2023-04-07T20:09:41.667Z,68.02
2023-04-07T20:12:09.288Z,67.77
2023-04-07T20:14:37.713Z,67.90
2023-04-07T20:17:06.853Z,68.00
2023-04-07T20:19:34.676Z,68.00
2023-04-07T20:22:02.300Z,68.10
2023-04-07T20:24:30.496Z,68.30
2023-04-07T20:26:58.673Z,68.76
2023-04-07T20:29:26.536Z,69.07
2023-04-07T20:31:54.541Z,68.96
2023-04-07T20:34:23.607Z,68.98
2023-04-07T20:36:51.313Z,69.18
2023-04-07T20:39:19.035Z,69.48
2023-04-07T20:41:46.983Z,69.34
2023-04-07T20:44:14.625Z,69.51
2023-04-07T20:46:42.857Z,69.64
2023-04-07T20:49:10.757Z,69.73
2023-04-07T20:51:40.066Z,69.61
2023-04-07T20:54:07.823Z,69.46
2023-04-07T20:56:35.633Z,69.29
2023-04-07T20:59:03.244Z,69.13
2023-04-07T21:01:30.920Z,68.81
2023-04-07T21:04:00.808Z,68.86
2023-04-07T21:06:28.609Z,68.71
2023-04-07T21:08:57.635Z,69.05
2023-04-07T21:11:26.014Z,69.04
2023-04-07T21:13:53.970Z,68.96
2023-04-07T21:16:21.770Z,68.97
2023-04-07T21:18:49.629Z,69.07
2023-04-07T21:21:17.350Z,69.29
2023-04-07T21:23:45.154Z,69.38
2023-04-07T21:26:14.229Z,69.51
2023-04-07T21:28:42.088Z,69.60
2023-04-07T21:31:10.207Z,69.52
2023-04-07T21:33:39.197Z,69.68
2023-04-07T21:36:07.772Z,69.72
2023-04-07T21:38:35.500Z,69.84
2023-04-07T21:41:03.167Z,69.86
2023-04-07T21:43:34.547Z,69.81
2023-04-07T21:46:02.586Z,70.02
2023-04-07T21:48:32.396Z,69.99
2023-04-07T21:50:59.988Z,70.15
2023-04-07T21:53:27.731Z,70.04
2023-04-07T21:55:55.405Z,70.23
2023-04-07T21:58:23.679Z,70.26
2023-04-07T22:00:53.258Z,70.32
2023-04-07T22:03:21.027Z,70.30
2023-04-07T22:05:48.881Z,70.40
2023-04-07T22:08:16.727Z,70.60
2023-04-07T22:10:44.466Z,70.55
2023-04-07T22:13:12.072Z,70.81
2023-04-07T22:15:39.694Z,70.88
2023-04-07T22:18:08.736Z,70.72
2023-04-07T22:20:36.712Z,70.96
2023-04-07T22:23:04.324Z,71.06
2023-04-07T22:25:31.963Z,71.11
2023-04-07T22:27:59.647Z,71.01
2023-04-07T22:30:27.557Z,71.12
2023-04-07T22:32:55.307Z,71.29
2023-04-07T22:35:24.363Z,71.40
2023-04-07T22:37:52.053Z,71.46
2023-04-07T22:40:19.767Z,71.17
2023-04-07T22:42:47.371Z,70.94
2023-04-07T22:45:15.156Z,71.15
2023-04-07T22:47:42.842Z,70.90
2023-04-07T22:50:11.729Z,70.87
2023-04-07T22:52:40.744Z,70.81
2023-04-07T22:55:09.619Z,70.69
2023-04-07T22:57:37.306Z,70.80
2023-04-07T23:00:05.785Z,70.73
2023-04-07T23:02:33.557Z,70.74
2023-04-07T23:05:01.426Z,70.77
2023-04-07T23:07:29.092Z,70.57
2023-04-07T23:09:58.491Z,70.77
2023-04-07T23:12:26.244Z,71.05
2023-04-07T23:14:53.892Z,70.92
2023-04-07T23:17:21.687Z,70.47
2023-04-07T23:19:49.427Z,70.59
2023-04-07T23:22:17.107Z,70.74
2023-04-07T23:24:44.904Z,70.96
2023-04-07T23:27:13.872Z,71.18
2023-04-07T23:29:41.457Z,71.03
2023-04-07T23:32:09.193Z,71.05
2023-04-07T23:34:36.803Z,70.90
2023-04-07T23:37:04.484Z,71.07
2023-04-07T23:39:32.137Z,71.27
2023-04-07T23:41:59.822Z,71.29
2023-04-07T23:44:28.791Z,71.26
2023-04-07T23:46:56.470Z,71.29
2023-04-07T23:49:24.089Z,71.42
2023-04-07T23:51:52.440Z,71.42
2023-04-07T23:54:20.078Z,71.40
2023-04-07T23:56:47.712Z,71.34
2023-04-07T23:59:15.427Z,71.31
